Paradas, Spain
Current Conditions -  °F | °C
As of 5:00 PM on Sunday 23 Nov 2014 (Local Time) from LEMO Reporting Station
Rain Showers Rain Showers  
Wind Chill: 70°   Ceiling: Unl
Heat Index: 70°   Visibility: 6mi
Dew Point: 59°   Wind: 0mph
Humidity: 68%   Direction: NA
Pressure: 29.8"   Gusts: NA
Location:  37.29°N, 5.5°W
Report Text: LEMO 231600Z 00000KT 9000 VCSH FEW030TCU 21/15 Q1009
Loading
Personal Weather Stations






























Interactive Weather Map New forecast layout! Learn more

10-Day Weather Forecast

Advertisements
Track Severe Weather on mobile